Time;durP1;ratioP1;P1;durP2;ratioP2;P2;SDS_P1;SDS_P2;PMS_P1;PMS_P2;Temp;Humidity;BMP_temperature;BMP_pressure;BME280_temperature;BME280_humidity;BME280_pressure;Samples;Min_cycle;Max_cycle;Signal;HPM_P1;HPM_P2
2022/06/25 00:01:24;;;;;;;6.73;4.00;;;19.90;99.90;;;;;;5091672;28;20287;-66
2022/06/25 00:03:51;;;;;;;7.23;4.30;;;19.90;99.90;;;;;;5089574;28;20213;-66
2022/06/25 00:06:19;;;;;;;5.93;3.77;;;19.90;99.90;;;;;;5091192;28;20263;-66
2022/06/25 00:08:48;;;;;;;5.27;3.80;;;19.80;99.90;;;;;;5091636;28;20200;-66
2022/06/25 00:14:07;;;;;;;12.47;4.17;;;19.80;99.90;;;;;;5089105;28;20203;-68
2022/06/25 00:16:36;;;;;;;5.77;4.03;;;19.80;99.90;;;;;;5091493;28;20197;-67
2022/06/25 00:19:03;;;;;;;5.37;3.80;;;19.70;99.90;;;;;;5091215;28;20212;-67
2022/06/25 00:21:31;;;;;;;5.57;4.00;;;19.70;99.90;;;;;;5087406;28;20585;-66
2022/06/25 00:23:58;;;;;;;5.40;3.50;;;19.70;99.90;;;;;;5091323;28;20558;-67
2022/06/25 00:26:25;;;;;;;7.50;3.83;;;19.70;99.90;;;;;;5082751;28;20212;-66
2022/06/25 00:28:52;;;;;;;3.87;3.33;;;19.70;99.90;;;;;;5070760;28;20204;-66
2022/06/25 00:31:18;;;;;;;5.43;3.63;;;19.70;99.90;;;;;;5070896;28;20210;-66
2022/06/25 00:33:46;;;;;;;6.53;3.90;;;19.70;99.90;;;;;;5081686;28;20208;-67
2022/06/25 00:36:13;;;;;;;5.73;3.50;;;19.60;99.90;;;;;;5091235;28;20245;-67
2022/06/25 00:38:40;;;;;;;6.13;3.70;;;19.60;99.90;;;;;;5090531;28;20227;-66
2022/06/25 00:41:07;;;;;;;6.03;3.43;;;19.60;99.90;;;;;;5090840;28;20323;-67
2022/06/25 00:43:38;;;;;;;5.30;3.60;;;19.60;99.90;;;;;;5090118;28;20212;-68
2022/06/25 00:46:05;;;;;;;6.67;3.60;;;19.60;99.90;;;;;;5094539;28;20237;-66
2022/06/25 00:48:32;;;;;;;4.03;3.13;;;19.60;99.90;;;;;;5094905;28;20204;-67
2022/06/25 00:51:05;;;;;;;5.83;3.80;;;19.60;99.90;;;;;;5091164;28;20233;-68
2022/06/25 00:53:34;;;;;;;4.83;3.70;;;19.60;99.90;;;;;;5094262;28;20201;-66
2022/06/25 00:56:01;;;;;;;5.20;3.50;;;19.60;99.90;;;;;;5094705;28;20638;-68
2022/06/25 00:58:31;;;;;;;4.93;3.47;;;19.50;99.90;;;;;;5094622;28;20220;-66
2022/06/25 01:00:59;;;;;;;5.97;3.47;;;19.50;99.90;;;;;;5092531;28;20199;-67
2022/06/25 01:03:26;;;;;;;5.63;3.60;;;19.50;99.90;;;;;;5093205;28;20201;-67
2022/06/25 01:05:53;;;;;;;5.63;3.93;;;19.50;99.90;;;;;;5074248;28;20227;-67
2022/06/25 01:08:22;;;;;;;6.87;4.07;;;19.50;99.90;;;;;;5090746;28;20641;-68
2022/06/25 01:10:49;;;;;;;5.80;3.97;;;19.40;99.90;;;;;;5094097;28;20291;-66
2022/06/25 01:13:18;;;;;;;5.47;3.63;;;19.40;99.90;;;;;;5094697;28;20231;-67
2022/06/25 01:15:45;;;;;;;5.43;3.73;;;19.40;99.90;;;;;;5093199;28;20256;-67
2022/06/25 01:18:12;;;;;;;5.70;3.50;;;19.40;99.90;;;;;;5093206;28;20246;-67
2022/06/25 01:20:39;;;;;;;8.13;4.00;;;19.40;99.90;;;;;;5094088;28;20239;-66
2022/06/25 01:23:07;;;;;;;5.27;3.47;;;19.30;99.90;;;;;;5093954;28;20219;-67
2022/06/25 01:25:35;;;;;;;4.97;3.50;;;19.30;99.90;;;;;;5092467;28;20567;-66
2022/06/25 01:28:02;;;;;;;5.87;3.90;;;19.30;99.90;;;;;;5091774;28;20215;-66
2022/06/25 01:30:29;;;;;;;6.47;3.80;;;19.30;99.90;;;;;;5093803;28;20206;-67
2022/06/25 01:32:56;;;;;;;6.17;3.80;;;19.30;99.90;;;;;;5094005;28;20207;-66
2022/06/25 01:35:23;;;;;;;5.50;3.90;;;19.20;99.90;;;;;;5093010;28;20601;-67
2022/06/25 01:37:50;;;;;;;4.90;3.80;;;19.20;99.90;;;;;;5092220;28;20227;-66
2022/06/25 01:40:18;;;;;;;5.43;3.87;;;19.20;99.90;;;;;;5093539;28;20236;-66
2022/06/25 01:43:00;;;;;;;5.33;3.80;;;19.20;99.90;;;;;;5093731;28;20671;-66
2022/06/25 01:45:28;;;;;;;7.17;3.90;;;19.20;99.90;;;;;;5091655;28;20199;-66
2022/06/25 01:47:55;;;;;;;5.50;4.03;;;19.20;99.90;;;;;;5093448;28;20239;-67
2022/06/25 01:50:22;;;;;;;4.97;3.53;;;19.20;99.90;;;;;;5093237;28;20293;-66
2022/06/25 01:52:49;;;;;;;5.53;3.97;;;19.20;99.90;;;;;;5093580;28;20217;-67
2022/06/25 01:55:18;;;;;;;4.37;3.50;;;19.20;99.90;;;;;;5091792;28;20242;-67
2022/06/25 01:57:45;;;;;;;7.63;3.80;;;19.10;99.90;;;;;;5092441;28;20393;-66
2022/06/25 02:00:15;;;;;;;5.13;3.63;;;19.10;99.90;;;;;;5093748;28;20240;-66
2022/06/25 02:02:42;;;;;;;6.83;3.90;;;19.10;99.90;;;;;;5091168;28;20223;-67
2022/06/25 02:05:11;;;;;;;5.73;3.20;;;19.10;99.90;;;;;;5090807;28;20758;-67
2022/06/25 02:07:38;;;;;;;6.63;3.77;;;19.10;99.90;;;;;;5090855;28;20280;-66
2022/06/25 02:10:05;;;;;;;7.00;3.60;;;19.10;99.90;;;;;;5092685;28;20204;-66
2022/06/25 02:12:34;;;;;;;4.93;3.90;;;19.10;99.90;;;;;;5093566;28;20212;-69
2022/06/25 02:15:01;;;;;;;6.20;3.90;;;19.20;99.90;;;;;;5091557;28;20215;-66
2022/06/25 02:17:28;;;;;;;4.60;3.50;;;19.20;99.90;;;;;;5092990;28;20217;-71
2022/06/25 02:19:56;;;;;;;7.37;4.00;;;19.30;99.90;;;;;;5093163;28;20224;-66
2022/06/25 02:22:22;;;;;;;5.30;3.90;;;19.40;99.90;;;;;;5093218;28;20224;-65
2022/06/25 02:24:52;;;;;;;11.17;4.20;;;19.40;99.90;;;;;;5091892;28;20208;-66
2022/06/25 02:27:19;;;;;;;7.73;4.70;;;19.50;99.90;;;;;;5089629;28;20214;-66
2022/06/25 02:29:47;;;;;;;9.03;3.97;;;19.60;99.90;;;;;;5092933;28;20235;-66
2022/06/25 02:32:13;;;;;;;4.83;3.87;;;19.60;99.90;;;;;;5093094;28;20204;-65
2022/06/25 02:34:40;;;;;;;4.57;3.70;;;19.70;99.90;;;;;;5092873;28;20209;-67
2022/06/25 02:37:07;;;;;;;7.40;4.10;;;19.80;99.90;;;;;;5091928;28;20603;-67
2022/06/25 02:39:34;;;;;;;9.83;3.40;;;19.80;99.90;;;;;;5091559;28;20239;-66
2022/06/25 02:42:01;;;;;;;5.20;3.87;;;19.90;99.90;;;;;;5092777;28;20268;-65
2022/06/25 02:44:27;;;;;;;4.87;3.43;;;19.90;99.90;;;;;;5092820;28;20516;-66
2022/06/25 02:46:55;;;;;;;5.27;3.30;;;19.90;99.90;;;;;;5092693;28;20206;-66
2022/06/25 02:49:22;;;;;;;5.57;3.43;;;19.90;99.90;;;;;;5091277;28;20204;-67
2022/06/25 02:51:49;;;;;;;9.37;4.10;;;20.00;99.90;;;;;;5091659;28;20201;-66
2022/06/25 02:54:16;;;;;;;4.30;3.40;;;20.00;99.90;;;;;;5092538;28;20566;-66
2022/06/25 02:59:27;;;;;;;5.20;3.40;;;20.10;99.90;;;;;;5092330;28;20302;-67
2022/06/25 03:01:56;;;;;;;4.70;3.33;;;20.10;99.90;;;;;;5092760;28;20563;-67
2022/06/25 03:04:24;;;;;;;8.17;3.70;;;20.20;99.90;;;;;;5091242;28;20205;-66
2022/06/25 03:06:51;;;;;;;7.97;3.80;;;20.20;99.90;;;;;;5090329;28;20287;-67
2022/06/25 03:09:18;;;;;;;8.10;3.87;;;20.30;99.90;;;;;;5092334;28;20658;-67
2022/06/25 03:11:45;;;;;;;8.80;3.53;;;20.30;99.90;;;;;;5092046;28;20266;-67
2022/06/25 03:14:12;;;;;;;5.80;3.60;;;20.30;99.90;;;;;;5092198;28;20283;-67
2022/06/25 03:16:39;;;;;;;7.20;3.67;;;20.30;99.90;;;;;;5089358;28;20291;-67
2022/06/25 03:19:07;;;;;;;9.97;3.50;;;20.30;99.90;;;;;;5092066;28;20269;-67
2022/06/25 03:21:34;;;;;;;8.70;3.33;;;20.30;99.90;;;;;;5091473;28;20560;-67
2022/06/25 03:24:01;;;;;;;7.50;3.53;;;20.40;99.90;;;;;;5092131;28;20540;-66
2022/06/25 03:26:28;;;;;;;7.90;4.00;;;20.40;99.90;;;;;;5090782;28;20214;-67
2022/06/25 03:28:55;;;;;;;5.17;3.47;;;20.40;99.90;;;;;;5081511;28;20204;-66
2022/06/25 03:31:23;;;;;;;5.07;3.53;;;20.40;99.90;;;;;;5089804;28;20629;-66
2022/06/25 03:33:49;;;;;;;8.27;3.83;;;20.50;99.90;;;;;;5088925;28;20237;-67
2022/06/25 03:36:18;;;;;;;5.80;3.67;;;20.50;99.90;;;;;;5091646;28;20286;-66
2022/06/25 03:38:44;;;;;;;3.93;3.00;;;20.50;99.90;;;;;;5090378;28;20228;-65
2022/06/25 03:43:55;;;;;;;5.97;3.50;;;20.50;99.90;;;;;;5089307;28;20203;-67
2022/06/25 03:46:22;;;;;;;4.50;3.30;;;20.50;99.90;;;;;;5091773;28;20615;-66
2022/06/25 03:48:49;;;;;;;5.10;3.37;;;20.50;99.90;;;;;;5091844;28;20196;-67
2022/06/25 03:51:17;;;;;;;6.70;3.60;;;20.60;99.90;;;;;;5088674;28;20203;-66
2022/06/25 03:53:44;;;;;;;6.60;3.43;;;20.70;99.90;;;;;;5086121;28;20216;-67
2022/06/25 03:56:12;;;;;;;6.00;3.20;;;20.70;99.90;;;;;;5091802;28;20256;-67
2022/06/25 03:58:38;;;;;;;4.90;3.50;;;20.70;99.90;;;;;;5091067;28;20230;-66
2022/06/25 04:01:05;;;;;;;5.90;3.90;;;20.70;99.90;;;;;;5090048;28;20214;-67
2022/06/25 04:03:33;;;;;;;7.47;3.70;;;20.80;99.90;;;;;;5089313;28;20612;-66
2022/06/25 04:05:59;;;;;;;5.10;3.40;;;20.80;99.90;;;;;;5078193;28;20581;-68
2022/06/25 04:08:27;;;;;;;9.10;3.87;;;20.80;99.90;;;;;;5091282;28;20207;-66
2022/06/25 04:10:55;;;;;;;6.03;3.43;;;20.90;99.90;;;;;;5091462;28;20297;-67
2022/06/25 04:13:22;;;;;;;4.70;3.50;;;21.00;99.90;;;;;;5091006;28;20211;-68
2022/06/25 04:15:49;;;;;;;4.03;3.30;;;21.00;99.90;;;;;;5087497;28;20730;-66
2022/06/25 04:18:15;;;;;;;5.00;3.10;;;21.10;99.90;;;;;;5093854;28;20725;-67
2022/06/25 04:20:42;;;;;;;8.83;3.20;;;21.10;99.90;;;;;;5095394;28;20213;-68
2022/06/25 04:23:10;;;;;;;5.93;3.10;;;21.10;99.90;;;;;;5094668;28;20205;-66
2022/06/25 04:25:38;;;;;;;4.60;3.23;;;21.10;99.90;;;;;;5075255;28;20225;-66
2022/06/25 04:30:50;;;;;;;6.10;3.20;;;21.20;99.90;;;;;;5095073;28;20187;-68
2022/06/25 04:33:17;;;;;;;3.83;3.23;;;21.20;99.90;;;;;;5094697;28;20204;-67
2022/06/25 04:35:45;;;;;;;5.13;3.20;;;21.30;99.90;;;;;;5094969;28;20212;-66
2022/06/25 04:38:11;;;;;;;8.27;3.43;;;21.30;99.90;;;;;;5094262;28;20200;-67
2022/06/25 04:40:40;;;;;;;5.03;3.07;;;21.40;99.90;;;;;;5094895;28;20235;-67
2022/06/25 04:43:06;;;;;;;11.30;3.63;;;21.50;99.90;;;;;;5095224;28;20347;-66
2022/06/25 04:45:33;;;;;;;6.83;3.13;;;21.50;99.90;;;;;;5094456;28;20212;-66
2022/06/25 04:48:01;;;;;;;3.87;3.10;;;21.60;99.90;;;;;;5094862;28;20722;-67
2022/06/25 04:50:28;;;;;;;5.43;3.07;;;21.60;99.90;;;;;;5093501;28;20201;-67
2022/06/25 04:52:55;;;;;;;5.53;3.37;;;21.70;99.90;;;;;;5094897;28;20215;-67
2022/06/25 04:55:22;;;;;;;6.07;3.27;;;21.80;99.90;;;;;;5094533;28;20202;-68
2022/06/25 04:57:50;;;;;;;5.67;3.00;;;21.80;99.90;;;;;;5094724;28;20632;-67
2022/06/25 05:00:17;;;;;;;5.83;3.30;;;21.80;99.90;;;;;;5094273;28;20216;-66
2022/06/25 05:02:44;;;;;;;3.90;3.27;;;21.90;99.90;;;;;;5093488;28;20204;-67
2022/06/25 05:05:11;;;;;;;5.03;3.00;;;21.90;99.90;;;;;;5094594;28;20224;-65
2022/06/25 05:07:38;;;;;;;8.43;5.50;;;21.90;99.90;;;;;;5094251;28;20304;-68
2022/06/25 05:10:06;;;;;;;4.40;3.20;;;22.00;99.90;;;;;;5091536;28;20246;-67
2022/06/25 05:15:18;;;;;;;5.63;3.00;;;22.20;99.90;;;;;;5081317;28;20290;-67
2022/06/25 05:17:45;;;;;;;5.27;3.10;;;22.20;99.90;;;;;;5084090;28;20192;-66
2022/06/25 05:20:12;;;;;;;5.50;3.03;;;22.30;99.90;;;;;;5083480;28;20217;-68
2022/06/25 05:22:39;;;;;;;6.00;3.20;;;22.30;99.90;;;;;;5082608;28;20232;-66
2022/06/25 05:25:08;;;;;;;5.17;3.20;;;22.30;99.90;;;;;;5086637;28;20208;-67
2022/06/25 05:27:35;;;;;;;4.90;3.00;;;22.40;99.90;;;;;;5083303;28;20231;-66
2022/06/25 05:30:01;;;;;;;4.63;3.00;;;22.40;99.90;;;;;;5085651;28;20206;-66
2022/06/25 05:32:30;;;;;;;4.67;3.43;;;22.50;99.90;;;;;;5082535;28;20359;-67
2022/06/25 05:34:57;;;;;;;3.80;2.97;;;22.60;99.90;;;;;;5094047;28;20733;-67
2022/06/25 05:37:24;;;;;;;5.53;3.50;;;22.70;99.90;;;;;;5089741;28;20293;-67
2022/06/25 05:39:51;;;;;;;3.83;3.07;;;22.70;99.90;;;;;;5085226;28;20224;-68
2022/06/25 05:42:19;;;;;;;4.47;3.00;;;22.70;99.90;;;;;;5082312;28;20200;-67
2022/06/25 05:44:47;;;;;;;5.03;3.10;;;22.80;99.90;;;;;;5082464;28;20211;-66
2022/06/25 05:47:13;;;;;;;4.87;3.07;;;22.80;99.90;;;;;;5082785;28;20569;-67
2022/06/25 05:49:42;;;;;;;11.87;3.40;;;22.90;99.90;;;;;;5086767;28;20758;-67
2022/06/25 05:52:09;;;;;;;4.00;2.90;;;22.90;99.90;;;;;;5082341;28;20204;-67
2022/06/25 05:54:36;;;;;;;4.27;3.13;;;22.90;99.90;;;;;;5084581;28;20563;-68
2022/06/25 05:57:03;;;;;;;3.73;3.27;;;22.90;99.90;;;;;;5081276;28;20318;-67
2022/06/25 05:59:29;;;;;;;4.13;3.17;;;23.00;99.90;;;;;;5081756;28;20670;-67
2022/06/25 06:01:56;;;;;;;4.40;3.17;;;23.00;99.90;;;;;;5086237;28;20212;-67
2022/06/25 06:04:23;;;;;;;5.03;3.23;;;23.00;99.90;;;;;;5081997;28;20557;-67
2022/06/25 06:06:52;;;;;;;4.97;2.90;;;23.00;99.90;;;;;;5083124;28;20215;-66
2022/06/25 06:09:19;;;;;;;12.57;3.30;;;23.00;99.90;;;;;;5078023;28;20617;-67
2022/06/25 06:11:45;;;;;;;4.00;3.17;;;23.10;99.90;;;;;;5072865;28;20224;-66
2022/06/25 06:14:12;;;;;;;8.63;6.90;;;23.20;99.90;;;;;;5092656;28;20234;-67
2022/06/25 06:16:39;;;;;;;5.70;3.17;;;23.30;99.90;;;;;;5093185;28;20204;-68
2022/06/25 06:19:06;;;;;;;4.20;2.70;;;23.30;99.90;;;;;;5093316;28;20318;-70
2022/06/25 06:21:33;;;;;;;4.97;2.80;;;23.40;99.90;;;;;;5093216;28;20298;-67
2022/06/25 06:24:01;;;;;;;3.93;2.70;;;23.50;99.90;;;;;;5089274;28;20227;-67
2022/06/25 06:26:28;;;;;;;6.33;2.80;;;23.50;99.90;;;;;;5093079;28;20204;-67
2022/06/25 06:28:55;;;;;;;7.27;2.90;;;23.50;99.90;;;;;;5093201;28;20247;-70
2022/06/25 06:31:22;;;;;;;4.33;2.97;;;23.50;99.90;;;;;;5091052;28;20286;-67
2022/06/25 06:33:48;;;;;;;4.50;3.20;;;23.50;99.90;;;;;;5093064;28;20228;-69
2022/06/25 06:36:15;;;;;;;6.03;3.60;;;23.50;99.90;;;;;;5090676;28;20258;-67
2022/06/25 06:38:42;;;;;;;3.37;2.63;;;23.50;99.90;;;;;;5092306;28;20205;-69
2022/06/25 06:41:11;;;;;;;5.17;3.80;;;23.60;99.90;;;;;;5090735;28;20234;-67
2022/06/25 06:43:38;;;;;;;5.87;3.23;;;23.60;99.90;;;;;;5092654;28;20211;-68
2022/06/25 06:46:05;;;;;;;4.47;3.03;;;23.70;99.90;;;;;;5074009;28;20206;-67
2022/06/25 06:48:32;;;;;;;4.07;3.07;;;23.70;99.90;;;;;;5084465;28;20213;-67
2022/06/25 06:50:59;;;;;;;4.67;3.07;;;23.70;99.90;;;;;;5083656;28;20192;-65
2022/06/25 06:53:26;;;;;;;3.17;2.83;;;23.80;99.90;;;;;;5082215;28;20209;-67
2022/06/25 06:55:53;;;;;;;6.00;2.93;;;23.80;99.90;;;;;;5082310;28;20198;-67
2022/06/25 06:58:21;;;;;;;4.97;2.80;;;23.90;99.90;;;;;;5083947;28;20230;-67
2022/06/25 07:00:48;;;;;;;4.03;2.80;;;24.00;99.90;;;;;;5082412;28;20219;-68
2022/06/25 07:03:14;;;;;;;3.17;2.80;;;24.00;99.90;;;;;;5081458;28;20198;-67
2022/06/25 07:05:41;;;;;;;6.13;2.80;;;24.00;99.90;;;;;;5081001;28;20199;-66
2022/06/25 07:08:08;;;;;;;3.97;2.70;;;24.10;99.90;;;;;;5080279;28;20198;-68
2022/06/25 07:10:35;;;;;;;5.57;3.27;;;24.10;99.90;;;;;;5086351;28;20671;-66
2022/06/25 07:13:02;;;;;;;4.43;3.10;;;24.10;99.90;;;;;;5080285;28;20196;-68
2022/06/25 07:15:30;;;;;;;4.90;2.80;;;24.20;99.90;;;;;;5080958;28;20206;-67
2022/06/25 07:17:57;;;;;;;9.53;3.10;;;24.30;99.90;;;;;;5085449;28;20701;-67
2022/06/25 07:20:24;;;;;;;3.20;2.80;;;24.40;99.90;;;;;;5082415;28;20232;-68
2022/06/25 07:22:51;;;;;;;4.47;2.93;;;24.50;99.90;;;;;;5084597;28;20204;-69
2022/06/25 07:25:18;;;;;;;7.00;2.83;;;24.60;99.90;;;;;;5081307;28;20205;-68
2022/06/25 07:27:46;;;;;;;3.43;2.63;;;24.60;99.90;;;;;;5084779;28;20287;-68
2022/06/25 07:30:13;;;;;;;3.00;2.53;;;24.60;99.90;;;;;;5078894;28;20217;-66
2022/06/25 07:32:41;;;;;;;3.70;2.70;;;24.50;99.90;;;;;;5071630;28;20302;-70
2022/06/25 07:35:09;;;;;;;4.27;2.77;;;24.40;99.90;;;;;;5080618;28;20227;-68
2022/06/25 07:37:36;;;;;;;4.53;2.83;;;24.40;99.90;;;;;;5092191;28;20226;-67
2022/06/25 07:40:04;;;;;;;5.97;3.10;;;24.30;99.90;;;;;;5091464;28;20682;-69
2022/06/25 07:42:31;;;;;;;4.50;2.80;;;24.30;99.90;;;;;;5090419;28;20208;-69
2022/06/25 07:44:58;;;;;;;2.83;2.53;;;24.30;99.90;;;;;;5089657;28;20301;-67
2022/06/25 07:47:25;;;;;;;4.57;2.80;;;24.30;99.90;;;;;;5089399;28;20248;-67
2022/06/25 07:52:38;;;;;;;4.53;3.10;;;24.30;99.90;;;;;;5091224;28;20286;-68
2022/06/25 07:55:05;;;;;;;3.23;2.90;;;24.40;99.90;;;;;;5086032;28;20201;-68
2022/06/25 07:57:32;;;;;;;4.53;2.80;;;24.40;99.90;;;;;;5081766;28;20203;-67
2022/06/25 07:59:59;;;;;;;3.97;2.60;;;24.40;99.90;;;;;;5081249;28;20229;-67
2022/06/25 08:02:26;;;;;;;7.03;3.00;;;24.40;99.90;;;;;;5083862;28;20279;-67
2022/06/25 08:04:55;;;;;;;7.53;2.80;;;24.50;99.90;;;;;;5080340;28;20199;-67
2022/06/25 08:07:21;;;;;;;4.83;2.93;;;24.70;99.80;;;;;;5086776;28;20202;-68
2022/06/25 08:09:48;;;;;;;3.93;2.37;;;24.80;99.60;;;;;;5082660;28;20224;-69
2022/06/25 08:12:15;;;;;;;5.53;2.50;;;24.70;98.80;;;;;;5084404;28;20210;-66
2022/06/25 08:14:42;;;;;;;3.63;2.37;;;24.80;98.90;;;;;;5085049;28;20213;-68
2022/06/25 08:17:09;;;;;;;4.93;2.50;;;24.90;98.40;;;;;;5081998;28;20201;-67
2022/06/25 08:19:36;;;;;;;2.57;2.20;;;25.00;97.90;;;;;;5087570;28;20649;-69
2022/06/25 08:22:04;;;;;;;3.07;2.20;;;25.10;97.80;;;;;;5081911;28;20209;-67
2022/06/25 08:24:31;;;;;;;3.73;2.37;;;25.30;97.70;;;;;;5082903;28;20616;-67
2022/06/25 08:26:58;;;;;;;3.23;2.57;;;25.30;97.50;;;;;;5071378;28;20202;-67
2022/06/25 08:29:25;;;;;;;3.23;2.37;;;25.40;96.80;;;;;;5078308;28;20272;-68
2022/06/25 08:31:53;;;;;;;3.20;2.30;;;25.50;97.40;;;;;;5082061;28;20290;-70
2022/06/25 08:34:20;;;;;;;3.50;2.13;;;25.60;97.20;;;;;;5083515;28;20205;-67
2022/06/25 08:36:47;;;;;;;3.93;2.30;;;25.60;96.20;;;;;;5086139;28;20593;-66
2022/06/25 08:39:15;;;;;;;4.68;2.50;;;25.70;96.70;;;;;;5089538;28;20206;-69
2022/06/25 08:41:43;;;;;;;4.33;2.17;;;25.70;96.60;;;;;;5086794;28;20632;-68
2022/06/25 08:44:10;;;;;;;4.28;2.72;;;25.70;96.30;;;;;;5083288;28;20269;-67
2022/06/25 08:46:37;;;;;;;5.95;2.40;;;25.70;95.90;;;;;;5082199;28;20302;-69
2022/06/25 08:49:04;;;;;;;19.03;3.17;;;25.70;96.80;;;;;;5081464;28;20208;-67
2022/06/25 08:51:33;;;;;;;4.40;2.42;;;25.70;96.80;;;;;;5082985;28;20301;-70
2022/06/25 08:54:02;;;;;;;3.78;2.30;;;25.80;96.70;;;;;;5080042;28;20207;-67
2022/06/25 08:56:30;;;;;;;3.75;2.30;;;25.70;96.30;;;;;;5084465;28;20204;-66
2022/06/25 08:58:57;;;;;;;3.78;2.30;;;25.70;96.50;;;;;;5080685;28;20212;-68
2022/06/25 09:01:24;;;;;;;5.88;2.70;;;25.80;96.90;;;;;;5083218;28;20253;-67
2022/06/25 09:03:51;;;;;;;3.13;2.60;;;25.80;96.60;;;;;;5081002;28;20204;-68
2022/06/25 09:06:21;;;;;;;3.93;2.47;;;25.70;96.60;;;;;;5085532;28;20214;-66
2022/06/25 09:09:09;;;;;;;3.30;2.50;;;25.80;96.10;;;;;;5084541;28;20204;-68
2022/06/25 09:11:49;;;;;;;3.20;2.40;;;25.80;96.20;;;;;;5089245;28;20189;-69
2022/06/25 09:14:24;;;;;;;5.33;2.30;;;25.90;95.20;;;;;;5092769;28;20229;-69
2022/06/25 09:16:56;;;;;;;5.35;2.60;;;26.00;95.10;;;;;;5093103;28;20216;-70
2022/06/25 09:19:31;;;;;;;13.02;3.25;;;26.00;95.50;;;;;;5091326;28;20186;-70
2022/06/25 09:21:58;;;;;;;7.22;2.70;;;26.00;95.20;;;;;;5092843;28;20267;-70
2022/06/25 09:24:38;;;;;;;4.07;2.22;;;26.00;95.60;;;;;;5092944;28;20203;-70
2022/06/25 09:27:07;;;;;;;4.13;2.40;;;26.10;95.80;;;;;;5093166;28;20224;-74
2022/06/25 09:29:38;;;;;;;6.63;2.47;;;26.30;96.10;;;;;;5094394;28;20224;-72
2022/06/25 09:32:06;;;;;;;2.58;2.38;;;26.30;95.40;;;;;;5093319;28;20247;-69
2022/06/25 09:34:35;;;;;;;3.40;2.70;;;26.30;95.30;;;;;;5094195;28;20697;-70
2022/06/25 09:37:21;;;;;;;3.72;2.60;;;26.30;95.60;;;;;;5094126;28;20260;-70
2022/06/25 09:39:49;;;;;;;3.50;2.58;;;26.40;95.60;;;;;;5093662;28;20241;-70
2022/06/25 09:42:26;;;;;;;2.40;2.20;;;26.40;95.00;;;;;;5094892;28;20206;-72
2022/06/25 09:45:06;;;;;;;4.22;3.10;;;26.40;95.00;;;;;;5094667;28;20213;-69
2022/06/25 09:47:37;;;;;;;5.15;2.42;;;26.40;94.40;;;;;;5094914;28;20225;-71
2022/06/25 09:50:06;;;;;;;17.38;3.58;;;26.40;94.10;;;;;;5094333;28;20197;-71
2022/06/25 09:52:34;;;;;;;3.83;2.60;;;26.40;94.90;;;;;;5094977;28;20207;-71
2022/06/25 09:55:01;;;;;;;5.18;2.30;;;26.40;95.00;;;;;;5094634;28;20204;-71
2022/06/25 09:57:31;;;;;;;3.55;2.40;;;26.40;95.00;;;;;;5094599;28;20243;-71
2022/06/25 10:00:00;;;;;;;5.95;2.40;;;26.50;95.20;;;;;;5092495;28;20674;-71
2022/06/25 10:02:28;;;;;;;2.90;2.40;;;26.60;94.80;;;;;;5094914;28;20650;-71
2022/06/25 10:05:01;;;;;;;5.40;2.83;;;26.70;94.70;;;;;;5093448;28;20327;-71
2022/06/25 10:10:14;;;;;;;4.90;2.50;;;26.80;94.40;;;;;;5094037;28;20209;-69
2022/06/25 10:12:43;;;;;;;4.43;2.88;;;26.80;94.30;;;;;;5094069;28;20187;-71
2022/06/25 10:15:10;;;;;;;4.32;2.50;;;26.80;93.90;;;;;;5092542;28;20235;-71
2022/06/25 10:17:38;;;;;;;4.60;2.45;;;26.60;93.50;;;;;;5093667;28;20206;-70
2022/06/25 10:20:06;;;;;;;2.80;2.50;;;26.60;93.60;;;;;;5093983;28;20265;-71
2022/06/25 10:22:33;;;;;;;3.95;2.40;;;26.60;93.90;;;;;;5092589;28;20237;-73
2022/06/25 10:25:01;;;;;;;6.13;3.70;;;26.60;94.00;;;;;;5093170;28;20236;-72
2022/06/25 10:27:28;;;;;;;7.63;2.60;;;26.70;93.70;;;;;;5093445;28;20217;-71
2022/06/25 10:29:57;;;;;;;3.05;2.40;;;26.70;93.50;;;;;;5093489;28;20215;-71
2022/06/25 10:32:27;;;;;;;4.00;2.20;;;26.70;93.20;;;;;;5093622;28;20200;-71
2022/06/25 10:34:55;;;;;;;11.70;2.88;;;26.70;93.60;;;;;;5094367;28;20659;-69
2022/06/25 10:37:22;;;;;;;6.45;2.75;;;26.70;93.70;;;;;;5094452;28;20210;-71
2022/06/25 10:39:52;;;;;;;3.45;2.40;;;26.70;93.70;;;;;;5093933;28;20240;-70
2022/06/25 10:45:53;;;;;;;3.05;2.20;;;26.60;93.70;;;;;;5092406;28;20745;-71
2022/06/25 10:48:22;;;;;;;3.63;2.42;;;26.70;93.70;;;;;;5093592;28;20195;-71
2022/06/25 10:50:50;;;;;;;3.78;2.90;;;26.70;93.60;;;;;;5093151;28;20302;-72
2022/06/25 10:53:19;;;;;;;4.00;2.92;;;26.70;93.50;;;;;;5092899;28;20207;-69
2022/06/25 10:56:12;;;;;;;4.57;2.60;;;26.80;93.70;;;;;;5091792;28;20209;-69
2022/06/25 10:58:43;;;;;;;4.38;2.67;;;26.90;93.50;;;;;;5092717;28;20274;-70
2022/06/25 11:01:31;;;;;;;3.78;2.30;;;27.00;93.10;;;;;;5092356;28;20229;-71
2022/06/25 11:04:04;;;;;;;3.65;2.47;;;26.90;92.90;;;;;;5092385;28;20195;-70
2022/06/25 11:06:34;;;;;;;5.40;2.53;;;26.90;93.30;;;;;;5091475;28;20667;-70
2022/06/25 11:09:10;;;;;;;4.68;2.60;;;26.80;92.60;;;;;;5092362;28;20191;-72
2022/06/25 11:11:38;;;;;;;7.03;4.15;;;26.80;93.10;;;;;;5092788;28;20198;-70
2022/06/25 11:14:14;;;;;;;4.13;2.85;;;26.60;92.40;;;;;;5092392;28;20231;-72
2022/06/25 11:16:43;;;;;;;4.95;2.33;;;26.60;92.20;;;;;;5092001;28;20190;-74
2022/06/25 11:19:10;;;;;;;2.58;2.20;;;26.50;90.60;;;;;;5090512;28;20204;-72
2022/06/25 11:21:39;;;;;;;3.80;2.47;;;26.40;90.70;;;;;;5090810;28;20226;-69
2022/06/25 11:24:07;;;;;;;3.45;2.40;;;26.50;91.20;;;;;;5092130;28;20212;-71
2022/06/25 11:29:22;;;;;;;5.10;2.75;;;26.70;91.00;;;;;;5092112;28;20653;-71
2022/06/25 11:31:51;;;;;;;2.72;2.20;;;26.70;91.30;;;;;;5091136;28;20198;-71
2022/06/25 11:34:20;;;;;;;5.35;2.70;;;26.80;91.90;;;;;;5092551;28;20202;-71
2022/06/25 11:36:54;;;;;;;3.50;2.50;;;26.80;91.40;;;;;;5092214;28;20205;-71
2022/06/25 11:39:21;;;;;;;3.17;2.47;;;26.80;92.10;;;;;;5092268;28;20204;-72
2022/06/25 11:41:50;;;;;;;2.50;2.20;;;26.80;92.20;;;;;;5092412;28;20217;-70
2022/06/25 11:44:18;;;;;;;2.63;2.10;;;26.70;92.30;;;;;;5091060;28;20203;-72
2022/06/25 11:46:46;;;;;;;4.38;2.50;;;26.70;92.10;;;;;;5092039;28;20620;-71
2022/06/25 11:49:14;;;;;;;3.42;2.58;;;26.60;92.10;;;;;;5092105;28;20201;-71
2022/06/25 11:51:45;;;;;;;7.55;4.55;;;26.60;91.90;;;;;;5092012;28;20333;-71
2022/06/25 11:54:13;;;;;;;3.78;2.70;;;26.70;91.90;;;;;;5091077;28;20242;-69
2022/06/25 11:56:47;;;;;;;4.68;2.50;;;26.80;91.70;;;;;;5091721;28;20244;-70
2022/06/25 11:59:15;;;;;;;3.13;2.40;;;26.80;91.50;;;;;;5091669;28;20196;-72
2022/06/25 12:01:48;;;;;;;3.13;2.45;;;26.80;91.00;;;;;;5091785;28;20631;-71
2022/06/25 12:04:16;;;;;;;2.97;2.22;;;26.90;90.20;;;;;;5092126;28;20212;-73
2022/06/25 12:06:43;;;;;;;3.80;2.35;;;27.00;90.00;;;;;;5091645;28;20200;-74
2022/06/25 12:09:10;;;;;;;3.28;2.38;;;27.10;90.50;;;;;;5091275;28;20218;-71
2022/06/25 12:11:37;;;;;;;3.97;2.83;;;27.10;89.90;;;;;;5091680;28;20573;-70
2022/06/25 12:14:05;;;;;;;4.53;2.38;;;27.00;89.40;;;;;;5091604;28;20225;-71
2022/06/25 12:16:42;;;;;;;2.58;2.20;;;27.00;90.50;;;;;;5091578;28;20224;-71
2022/06/25 12:19:09;;;;;;;3.25;2.35;;;27.00;90.40;;;;;;5084871;28;20547;-72
2022/06/25 12:21:37;;;;;;;5.53;3.08;;;27.10;90.30;;;;;;5080154;28;20217;-71
2022/06/25 12:24:06;;;;;;;4.47;2.33;;;27.10;90.60;;;;;;5080236;28;20202;-68
2022/06/25 12:26:35;;;;;;;4.03;2.58;;;27.10;90.20;;;;;;5081484;28;20296;-71
2022/06/25 12:29:07;;;;;;;3.60;2.60;;;27.00;90.50;;;;;;5081539;28;20229;-71
2022/06/25 12:31:34;;;;;;;3.83;2.33;;;27.00;90.10;;;;;;5079288;28;20206;-70
2022/06/25 12:34:02;;;;;;;4.95;4.15;;;27.00;89.30;;;;;;5082142;28;20207;-66
2022/06/25 12:36:29;;;;;;;5.38;2.50;;;27.00;90.00;;;;;;5088012;28;20271;-68
2022/06/25 12:38:57;;;;;;;2.92;2.10;;;27.00;90.50;;;;;;5082353;28;20195;-65
2022/06/25 12:41:48;;;;;;;3.13;2.20;;;27.00;90.30;;;;;;5082207;28;20235;-66
2022/06/25 12:44:15;;;;;;;4.68;2.35;;;27.00;90.60;;;;;;5084938;28;20207;-66
2022/06/25 12:46:42;;;;;;;5.05;2.45;;;27.10;90.70;;;;;;5087521;28;20216;-65
2022/06/25 12:49:12;;;;;;;7.43;6.22;;;27.10;89.80;;;;;;5086728;28;20215;-66
2022/06/25 12:51:40;;;;;;;4.70;2.67;;;27.10;90.20;;;;;;5084409;28;20188;-66
2022/06/25 12:54:08;;;;;;;5.15;2.58;;;27.10;90.00;;;;;;5085976;28;20216;-65
2022/06/25 12:56:35;;;;;;;2.50;2.30;;;27.00;89.70;;;;;;5085946;28;20209;-66
2022/06/25 12:59:04;;;;;;;6.13;2.38;;;27.00;89.10;;;;;;5083934;28;20621;-64
2022/06/25 13:01:32;;;;;;;4.82;2.20;;;27.00;90.00;;;;;;5084990;28;20789;-65
2022/06/25 13:04:00;;;;;;;2.97;2.50;;;27.00;88.70;;;;;;5084684;28;20207;-68
2022/06/25 13:06:27;;;;;;;3.22;2.63;;;26.90;89.00;;;;;;5075577;28;20928;-66
2022/06/25 13:08:53;;;;;;;4.10;2.50;;;26.90;89.30;;;;;;5074445;28;20213;-67
2022/06/25 13:11:23;;;;;;;3.85;2.25;;;26.90;89.60;;;;;;5073929;28;20235;-66
2022/06/25 13:13:51;;;;;;;2.80;2.30;;;26.90;88.70;;;;;;5074095;28;20206;-66
2022/06/25 13:16:18;;;;;;;4.65;2.33;;;27.00;89.00;;;;;;5094372;28;20213;-66